createdAt,value
2023-01-08T00:00:56.966Z,7.73
2023-01-08T00:06:03.127Z,7.17
2023-01-08T00:11:07.861Z,7.23
2023-01-08T00:16:13.027Z,6.30
2023-01-08T00:21:16.443Z,6.67
2023-01-08T00:26:20.955Z,6.50
2023-01-08T00:31:24.149Z,7.13
2023-01-08T00:36:27.387Z,6.87
2023-01-08T00:41:31.880Z,6.47
2023-01-08T00:46:34.985Z,6.70
2023-01-08T00:51:38.180Z,6.73
2023-01-08T00:56:42.644Z,6.90
2023-01-08T01:01:45.855Z,6.17
2023-01-08T01:06:49.093Z,6.47
2023-01-08T01:11:53.866Z,6.77
2023-01-08T01:16:57.032Z,6.50
2023-01-08T01:22:00.568Z,6.87
2023-01-08T01:27:05.133Z,6.63
2023-01-08T01:32:08.282Z,6.53
2023-01-08T01:37:13.841Z,5.67
2023-01-08T01:42:33.959Z,6.50
2023-01-08T01:47:39.448Z,6.00
2023-01-08T01:52:46.315Z,6.43
2023-01-08T01:57:56.468Z,6.17
2023-01-08T02:02:59.944Z,5.83
2023-01-08T02:08:08.693Z,6.00
2023-01-08T02:13:17.517Z,6.00
2023-01-08T02:18:22.359Z,5.83
2023-01-08T02:23:31.991Z,6.57
2023-01-08T02:28:42.118Z,5.40
2023-01-08T02:33:46.420Z,6.33
2023-01-08T02:38:58.757Z,5.10
2023-01-08T02:44:05.667Z,5.93
2023-01-08T02:49:14.160Z,5.73
2023-01-08T02:54:23.122Z,5.43
2023-01-08T02:59:28.700Z,5.47
2023-01-08T03:04:35.909Z,4.43
2023-01-08T03:09:39.207Z,5.43
2023-01-08T03:14:48.958Z,6.00
2023-01-08T03:19:56.052Z,5.63
2023-01-08T03:25:00.441Z,4.97
2023-01-08T03:30:07.290Z,5.60
2023-01-08T03:35:12.837Z,5.17
2023-01-08T03:40:21.224Z,4.90
2023-01-08T03:45:28.013Z,4.50
2023-01-08T03:50:33.248Z,5.10
2023-01-08T03:55:36.362Z,4.77
2023-01-08T04:00:41.197Z,4.77
2023-01-08T04:05:44.345Z,4.40
2023-01-08T04:10:47.646Z,4.27
2023-01-08T04:15:52.850Z,4.83
2023-01-08T04:20:56.053Z,4.73
2023-01-08T04:25:59.164Z,4.53
2023-01-08T04:31:06.824Z,4.63
2023-01-08T04:36:11.115Z,5.00
2023-01-08T04:41:14.304Z,4.30
2023-01-08T04:46:18.897Z,4.53
2023-01-08T04:51:22.421Z,4.50
2023-01-08T04:56:25.620Z,4.30
2023-01-08T05:01:30.547Z,3.97
2023-01-08T05:06:34.631Z,5.30
2023-01-08T05:11:37.723Z,5.00
2023-01-08T05:16:42.198Z,5.30
2023-01-08T05:21:45.345Z,4.90
2023-01-08T05:26:48.426Z,4.67
2023-01-08T05:31:52.905Z,4.27
2023-01-08T05:36:56.050Z,5.13
2023-01-08T05:41:59.218Z,5.00
2023-01-08T05:47:03.803Z,4.40
2023-01-08T05:52:06.871Z,4.27
2023-01-08T05:57:09.971Z,6.13
2023-01-08T06:02:14.503Z,4.93
2023-01-08T06:07:17.701Z,4.80
2023-01-08T06:12:20.832Z,4.80
2023-01-08T06:17:25.334Z,4.40
2023-01-08T06:22:28.602Z,4.70
2023-01-08T06:27:31.912Z,4.70
2023-01-08T06:32:36.407Z,4.90
2023-01-08T06:37:39.650Z,4.57
2023-01-08T06:42:44.113Z,4.00
2023-01-08T06:47:48.566Z,4.10
2023-01-08T06:52:55.047Z,4.30
2023-01-08T06:57:59.647Z,4.00
2023-01-08T07:03:04.268Z,4.17
2023-01-08T07:08:07.594Z,3.93
2023-01-08T07:13:12.724Z,4.40
2023-01-08T07:18:17.365Z,4.33
2023-01-08T07:23:20.485Z,7.50
2023-01-08T07:28:23.711Z,5.20
2023-01-08T07:33:28.270Z,4.90
2023-01-08T07:38:31.416Z,4.20
2023-01-08T07:43:35.346Z,4.03
2023-01-08T07:48:39.994Z,3.47
2023-01-08T07:53:43.137Z,4.13
2023-01-08T07:58:46.347Z,4.10
2023-01-08T08:03:51.064Z,4.53
2023-01-08T08:08:54.193Z,3.93
2023-01-08T08:13:57.295Z,3.90
2023-01-08T08:19:01.970Z,3.90
2023-01-08T08:24:20.647Z,5.03
2023-01-08T08:43:13.702Z,4.83
2023-01-08T08:55:16.258Z,3.83
2023-01-08T09:00:20.959Z,3.83
2023-01-08T09:05:24.227Z,4.27
2023-01-08T09:10:27.640Z,4.20
2023-01-08T09:15:33.235Z,4.27
2023-01-08T09:20:36.485Z,4.87
2023-01-08T09:25:51.331Z,4.83
2023-01-08T09:30:56.107Z,5.70
2023-01-08T09:36:09.727Z,5.60
2023-01-08T09:41:22.637Z,4.80
2023-01-08T09:46:32.826Z,4.37
2023-01-08T09:51:37.817Z,4.20
2023-01-08T09:56:41.067Z,5.10
2023-01-08T10:01:49.104Z,4.70
2023-01-08T10:07:01.918Z,4.73
2023-01-08T10:12:15.345Z,4.57
2023-01-08T10:17:46.200Z,4.53
2023-01-08T10:22:54.530Z,5.40
2023-01-08T10:28:05.213Z,4.43
2023-01-08T10:33:24.750Z,4.50
2023-01-08T10:38:33.573Z,4.50
2023-01-08T10:43:53.994Z,4.60
2023-01-08T10:49:01.591Z,5.00
2023-01-08T10:54:15.925Z,5.50
2023-01-08T10:59:20.403Z,6.70
2023-01-08T11:04:32.561Z,6.40
2023-01-08T11:09:51.913Z,5.80
2023-01-08T11:15:35.980Z,5.73
2023-01-08T11:20:50.695Z,4.80
2023-01-08T11:26:01.118Z,5.10
2023-01-08T11:31:13.098Z,5.53
2023-01-08T11:36:24.906Z,5.40
2023-01-08T11:41:47.978Z,5.50
2023-01-08T11:46:59.128Z,5.27
2023-01-08T11:52:30.705Z,4.90
2023-01-08T11:57:44.525Z,4.90
2023-01-08T12:02:55.377Z,5.30
2023-01-08T12:08:04.305Z,5.53
2023-01-08T12:13:21.043Z,7.43
2023-01-08T12:18:40.720Z,6.70
2023-01-08T12:24:01.442Z,6.07
2023-01-08T12:29:25.053Z,6.30
2023-01-08T12:34:40.181Z,5.70
2023-01-08T12:39:51.475Z,6.37
2023-01-08T12:44:58.614Z,6.07
2023-01-08T12:50:11.935Z,6.17
2023-01-08T12:55:24.219Z,5.97
2023-01-08T13:00:36.589Z,5.80
2023-01-08T13:05:42.047Z,8.03
2023-01-08T13:10:53.859Z,7.07
2023-01-08T13:16:20.009Z,6.93
2023-01-08T13:21:34.672Z,7.43
2023-01-08T13:26:51.424Z,6.83
2023-01-08T13:31:57.941Z,10.40
2023-01-08T13:37:02.208Z,8.03
2023-01-08T13:42:22.285Z,6.97
2023-01-08T13:47:31.973Z,6.70
2023-01-08T13:52:42.701Z,10.10
2023-01-08T13:57:50.367Z,9.07
2023-01-08T14:03:01.893Z,10.47
2023-01-08T14:08:05.138Z,14.30
2023-01-08T14:13:10.339Z,13.20
2023-01-08T14:18:15.544Z,10.80
2023-01-08T14:23:25.491Z,8.40
2023-01-08T14:28:28.593Z,8.00
2023-01-08T14:33:35.640Z,8.67
2023-01-08T14:38:39.727Z,8.93
2023-01-08T14:43:45.277Z,9.10
2023-01-08T14:48:52.140Z,9.27
2023-01-08T14:53:59.568Z,9.60
2023-01-08T14:59:09.343Z,10.20
2023-01-08T15:04:18.811Z,9.33
2023-01-08T15:09:23.633Z,10.90
2023-01-08T15:14:28.165Z,13.20
2023-01-08T15:19:40.963Z,10.90
2023-01-08T15:24:44.754Z,14.40
2023-01-08T15:29:50.500Z,13.37
2023-01-08T15:34:55.119Z,13.63
2023-01-08T15:39:58.342Z,10.23
2023-01-08T15:45:01.485Z,9.73
2023-01-08T15:50:07.547Z,10.73
2023-01-08T15:55:17.679Z,10.93
2023-01-08T16:00:22.908Z,9.97
2023-01-08T16:05:31.357Z,13.07
2023-01-08T16:10:35.022Z,13.03
2023-01-08T16:15:40.255Z,17.00
2023-01-08T16:20:44.744Z,12.90
2023-01-08T16:25:47.834Z,14.17
2023-01-08T16:30:52.615Z,14.00
2023-01-08T16:36:06.675Z,10.07
2023-01-08T16:41:09.925Z,8.17
2023-01-08T16:46:14.780Z,7.83
2023-01-08T16:51:26.751Z,7.90
2023-01-08T16:56:30.942Z,7.03
2023-01-08T17:01:34.326Z,7.73
2023-01-08T17:06:39.139Z,6.17
2023-01-08T17:11:44.221Z,6.20
2023-01-08T17:16:51.123Z,5.50
2023-01-08T17:21:55.578Z,7.20
2023-01-08T17:26:59.071Z,5.97
2023-01-08T17:32:02.163Z,6.23
2023-01-08T17:37:06.978Z,6.70
2023-01-08T17:42:26.877Z,6.47
2023-01-08T17:47:31.903Z,6.23
2023-01-08T17:52:38.256Z,7.30
2023-01-08T17:57:41.372Z,8.87
2023-01-08T18:02:44.558Z,8.40
2023-01-08T18:07:49.334Z,9.40
2023-01-08T18:12:52.424Z,8.37
2023-01-08T18:17:55.513Z,9.20
2023-01-08T18:23:00.024Z,9.97
2023-01-08T18:28:03.130Z,9.73
2023-01-08T18:33:06.253Z,9.60
2023-01-08T18:38:15.732Z,8.03
2023-01-08T18:43:18.838Z,6.13
2023-01-08T18:48:21.983Z,7.87
2023-01-08T18:53:27.007Z,8.93
2023-01-08T18:58:30.562Z,10.10
2023-01-08T19:03:33.920Z,8.67
2023-01-08T19:08:39.545Z,7.07
2023-01-08T19:13:43.199Z,8.83
2023-01-08T19:18:46.319Z,6.67
2023-01-08T19:23:52.287Z,6.43
2023-01-08T19:28:55.462Z,7.40
2023-01-08T19:33:59.856Z,7.00
2023-01-08T19:39:14.999Z,6.43
2023-01-08T19:44:18.302Z,7.03
2023-01-08T19:49:21.525Z,6.60
2023-01-08T19:54:26.221Z,6.73
2023-01-08T19:59:29.437Z,6.70
2023-01-08T20:04:32.903Z,5.90
2023-01-08T20:09:38.616Z,5.97
2023-01-08T20:14:41.949Z,6.83
2023-01-08T20:19:45.310Z,6.57
2023-01-08T20:24:50.130Z,6.37
2023-01-08T20:29:53.476Z,5.87
2023-01-08T20:34:56.600Z,6.20
2023-01-08T20:40:01.493Z,4.97
2023-01-08T20:45:04.887Z,6.27
2023-01-08T20:50:19.447Z,5.50
2023-01-08T20:55:25.012Z,5.60
2023-01-08T21:00:28.232Z,5.67
2023-01-08T21:05:32.618Z,4.93
2023-01-08T21:10:39.072Z,5.13
2023-01-08T21:15:42.192Z,5.37
2023-01-08T21:20:45.352Z,5.67
2023-01-08T21:25:55.363Z,4.70
2023-01-08T21:31:06.297Z,5.30
2023-01-08T21:36:12.080Z,5.87
2023-01-08T21:41:33.712Z,5.33
2023-01-08T21:46:40.247Z,6.07
2023-01-08T21:52:00.988Z,6.30
2023-01-08T21:57:05.684Z,6.53
2023-01-08T22:02:14.313Z,7.07
2023-01-08T22:07:17.583Z,6.07
2023-01-08T22:12:22.781Z,5.80
2023-01-08T22:17:27.610Z,6.80
2023-01-08T22:22:30.715Z,5.90
2023-01-08T22:27:35.191Z,6.37
2023-01-08T22:32:38.349Z,6.63
2023-01-08T22:37:43.703Z,6.40
2023-01-08T22:42:48.147Z,6.00
2023-01-08T22:47:51.243Z,6.30
2023-01-08T22:52:54.334Z,6.27
2023-01-08T22:57:58.781Z,6.50
2023-01-08T23:03:02.035Z,6.10
2023-01-08T23:08:06.121Z,7.37
2023-01-08T23:13:10.979Z,7.50
2023-01-08T23:18:14.053Z,8.10
2023-01-08T23:23:17.154Z,8.17
2023-01-08T23:28:21.682Z,7.90
2023-01-08T23:33:24.851Z,7.07
2023-01-08T23:38:28.065Z,8.33
2023-01-08T23:43:32.572Z,8.70
2023-01-08T23:48:35.723Z,8.40
2023-01-08T23:53:38.832Z,9.30
2023-01-08T23:58:45.241Z,9.17
